sensor_id;sensor_type;location;lat;lon;timestamp;P1;durP1;ratioP1;P2;durP2;ratioP2
20695;SDS011;10507;52.754;13.040;2024-03-08T00:00:41;29.77;;;14.93;;
20695;SDS011;10507;52.754;13.040;2024-03-08T00:03:08;27.93;;;14.50;;
20695;SDS011;10507;52.754;13.040;2024-03-08T00:05:36;28.67;;;15.23;;
20695;SDS011;10507;52.754;13.040;2024-03-08T00:08:04;31.07;;;14.93;;
20695;SDS011;10507;52.754;13.040;2024-03-08T00:10:35;27.07;;;15.57;;
20695;SDS011;10507;52.754;13.040;2024-03-08T00:13:04;28.60;;;15.73;;
20695;SDS011;10507;52.754;13.040;2024-03-08T00:15:31;28.40;;;14.07;;
20695;SDS011;10507;52.754;13.040;2024-03-08T00:17:58;30.90;;;16.10;;
20695;SDS011;10507;52.754;13.040;2024-03-08T00:20:25;33.77;;;15.43;;
20695;SDS011;10507;52.754;13.040;2024-03-08T00:22:53;31.23;;;14.67;;
20695;SDS011;10507;52.754;13.040;2024-03-08T00:25:23;31.57;;;16.30;;
20695;SDS011;10507;52.754;13.040;2024-03-08T00:27:50;26.13;;;14.27;;
20695;SDS011;10507;52.754;13.040;2024-03-08T00:30:20;34.57;;;15.70;;
20695;SDS011;10507;52.754;13.040;2024-03-08T00:32:48;29.67;;;14.83;;
20695;SDS011;10507;52.754;13.040;2024-03-08T00:35:14;29.80;;;15.40;;
20695;SDS011;10507;52.754;13.040;2024-03-08T00:37:41;28.17;;;16.10;;
20695;SDS011;10507;52.754;13.040;2024-03-08T00:40:10;26.73;;;15.30;;
20695;SDS011;10507;52.754;13.040;2024-03-08T00:42:37;29.00;;;16.23;;
20695;SDS011;10507;52.754;13.040;2024-03-08T00:45:05;27.70;;;14.13;;
20695;SDS011;10507;52.754;13.040;2024-03-08T00:47:32;28.47;;;14.93;;
20695;SDS011;10507;52.754;13.040;2024-03-08T00:49:59;30.90;;;15.07;;
20695;SDS011;10507;52.754;13.040;2024-03-08T00:52:28;30.23;;;14.57;;
20695;SDS011;10507;52.754;13.040;2024-03-08T00:54:55;32.03;;;15.13;;
20695;SDS011;10507;52.754;13.040;2024-03-08T00:57:23;27.60;;;15.97;;
20695;SDS011;10507;52.754;13.040;2024-03-08T00:59:50;28.03;;;14.80;;
20695;SDS011;10507;52.754;13.040;2024-03-08T01:02:17;26.53;;;14.73;;
20695;SDS011;10507;52.754;13.040;2024-03-08T01:04:44;29.93;;;15.40;;
20695;SDS011;10507;52.754;13.040;2024-03-08T01:07:12;28.70;;;15.03;;
20695;SDS011;10507;52.754;13.040;2024-03-08T01:09:39;28.30;;;15.50;;
20695;SDS011;10507;52.754;13.040;2024-03-08T01:12:06;31.90;;;14.67;;
20695;SDS011;10507;52.754;13.040;2024-03-08T01:14:34;26.37;;;15.37;;
20695;SDS011;10507;52.754;13.040;2024-03-08T01:17:01;32.07;;;15.87;;
20695;SDS011;10507;52.754;13.040;2024-03-08T01:19:27;30.23;;;15.57;;
20695;SDS011;10507;52.754;13.040;2024-03-08T01:21:57;29.80;;;16.10;;
20695;SDS011;10507;52.754;13.040;2024-03-08T01:24:24;28.30;;;14.90;;
20695;SDS011;10507;52.754;13.040;2024-03-08T01:26:50;30.03;;;15.27;;
20695;SDS011;10507;52.754;13.040;2024-03-08T01:29:17;31.20;;;15.90;;
20695;SDS011;10507;52.754;13.040;2024-03-08T01:31:45;31.43;;;16.53;;
20695;SDS011;10507;52.754;13.040;2024-03-08T01:34:12;28.73;;;14.73;;
20695;SDS011;10507;52.754;13.040;2024-03-08T01:36:38;32.23;;;16.33;;
20695;SDS011;10507;52.754;13.040;2024-03-08T01:39:05;31.83;;;15.47;;
20695;SDS011;10507;52.754;13.040;2024-03-08T01:41:33;33.50;;;15.83;;
20695;SDS011;10507;52.754;13.040;2024-03-08T01:44:00;27.70;;;14.77;;
20695;SDS011;10507;52.754;13.040;2024-03-08T01:46:28;29.23;;;15.33;;
20695;SDS011;10507;52.754;13.040;2024-03-08T01:48:57;36.43;;;17.50;;
20695;SDS011;10507;52.754;13.040;2024-03-08T01:51:25;30.80;;;16.27;;
20695;SDS011;10507;52.754;13.040;2024-03-08T01:53:53;35.37;;;18.07;;
20695;SDS011;10507;52.754;13.040;2024-03-08T01:56:22;32.43;;;16.57;;
20695;SDS011;10507;52.754;13.040;2024-03-08T01:58:50;32.30;;;16.73;;
20695;SDS011;10507;52.754;13.040;2024-03-08T02:01:17;34.40;;;16.07;;
20695;SDS011;10507;52.754;13.040;2024-03-08T02:03:44;33.37;;;16.17;;
20695;SDS011;10507;52.754;13.040;2024-03-08T02:06:12;34.47;;;17.07;;
20695;SDS011;10507;52.754;13.040;2024-03-08T02:08:41;35.53;;;18.80;;
20695;SDS011;10507;52.754;13.040;2024-03-08T02:11:08;35.73;;;17.67;;
20695;SDS011;10507;52.754;13.040;2024-03-08T02:13:35;32.53;;;16.60;;
20695;SDS011;10507;52.754;13.040;2024-03-08T02:16:02;34.13;;;16.83;;
20695;SDS011;10507;52.754;13.040;2024-03-08T02:18:30;34.27;;;16.97;;
20695;SDS011;10507;52.754;13.040;2024-03-08T02:20:59;39.47;;;18.17;;
20695;SDS011;10507;52.754;13.040;2024-03-08T02:23:26;35.50;;;17.37;;
20695;SDS011;10507;52.754;13.040;2024-03-08T02:25:53;36.00;;;16.77;;
20695;SDS011;10507;52.754;13.040;2024-03-08T02:28:21;34.10;;;17.30;;
20695;SDS011;10507;52.754;13.040;2024-03-08T02:30:50;33.57;;;16.47;;
20695;SDS011;10507;52.754;13.040;2024-03-08T02:33:19;31.43;;;16.20;;
20695;SDS011;10507;52.754;13.040;2024-03-08T02:35:47;37.43;;;16.87;;
20695;SDS011;10507;52.754;13.040;2024-03-08T02:38:17;33.27;;;17.20;;
20695;SDS011;10507;52.754;13.040;2024-03-08T02:40:45;32.30;;;17.33;;
20695;SDS011;10507;52.754;13.040;2024-03-08T02:43:12;33.53;;;18.10;;
20695;SDS011;10507;52.754;13.040;2024-03-08T02:45:40;34.73;;;17.13;;
20695;SDS011;10507;52.754;13.040;2024-03-08T02:48:09;39.03;;;18.50;;
20695;SDS011;10507;52.754;13.040;2024-03-08T02:50:36;36.17;;;17.27;;
20695;SDS011;10507;52.754;13.040;2024-03-08T02:53:04;39.37;;;18.23;;
20695;SDS011;10507;52.754;13.040;2024-03-08T02:55:32;32.80;;;17.63;;
20695;SDS011;10507;52.754;13.040;2024-03-08T02:58:00;37.13;;;17.83;;
20695;SDS011;10507;52.754;13.040;2024-03-08T03:00:28;34.87;;;17.67;;
20695;SDS011;10507;52.754;13.040;2024-03-08T03:02:55;34.97;;;18.17;;
20695;SDS011;10507;52.754;13.040;2024-03-08T03:05:22;34.87;;;18.00;;
20695;SDS011;10507;52.754;13.040;2024-03-08T03:07:50;35.07;;;16.90;;
20695;SDS011;10507;52.754;13.040;2024-03-08T03:10:17;33.80;;;18.60;;
20695;SDS011;10507;52.754;13.040;2024-03-08T03:12:45;33.97;;;17.47;;
20695;SDS011;10507;52.754;13.040;2024-03-08T03:15:13;38.70;;;19.53;;
20695;SDS011;10507;52.754;13.040;2024-03-08T03:17:45;39.00;;;18.63;;
20695;SDS011;10507;52.754;13.040;2024-03-08T03:20:12;40.60;;;19.13;;
20695;SDS011;10507;52.754;13.040;2024-03-08T03:22:39;40.13;;;18.60;;
20695;SDS011;10507;52.754;13.040;2024-03-08T03:25:07;40.27;;;19.67;;
20695;SDS011;10507;52.754;13.040;2024-03-08T03:27:35;36.97;;;19.03;;
20695;SDS011;10507;52.754;13.040;2024-03-08T03:30:04;38.43;;;18.37;;
20695;SDS011;10507;52.754;13.040;2024-03-08T03:32:46;37.33;;;18.90;;
20695;SDS011;10507;52.754;13.040;2024-03-08T03:35:13;34.17;;;17.17;;
20695;SDS011;10507;52.754;13.040;2024-03-08T03:37:41;43.27;;;18.60;;
20695;SDS011;10507;52.754;13.040;2024-03-08T03:40:10;37.83;;;18.57;;
20695;SDS011;10507;52.754;13.040;2024-03-08T03:42:38;38.53;;;18.13;;
20695;SDS011;10507;52.754;13.040;2024-03-08T03:45:06;34.90;;;16.97;;
20695;SDS011;10507;52.754;13.040;2024-03-08T03:47:35;38.33;;;18.73;;
20695;SDS011;10507;52.754;13.040;2024-03-08T03:50:03;36.53;;;18.37;;
20695;SDS011;10507;52.754;13.040;2024-03-08T03:52:31;34.87;;;18.50;;
20695;SDS011;10507;52.754;13.040;2024-03-08T03:54:58;34.53;;;17.07;;
20695;SDS011;10507;52.754;13.040;2024-03-08T03:57:24;37.90;;;18.57;;
20695;SDS011;10507;52.754;13.040;2024-03-08T03:59:51;34.33;;;18.10;;
20695;SDS011;10507;52.754;13.040;2024-03-08T04:02:19;38.20;;;18.20;;
20695;SDS011;10507;52.754;13.040;2024-03-08T04:04:46;39.67;;;19.23;;
20695;SDS011;10507;52.754;13.040;2024-03-08T04:07:13;38.50;;;18.77;;
20695;SDS011;10507;52.754;13.040;2024-03-08T04:09:39;32.10;;;17.23;;
20695;SDS011;10507;52.754;13.040;2024-03-08T04:12:06;36.47;;;19.30;;
20695;SDS011;10507;52.754;13.040;2024-03-08T04:14:35;38.10;;;18.50;;
20695;SDS011;10507;52.754;13.040;2024-03-08T04:17:01;34.60;;;17.63;;
20695;SDS011;10507;52.754;13.040;2024-03-08T04:19:30;36.50;;;18.00;;
20695;SDS011;10507;52.754;13.040;2024-03-08T04:21:56;35.60;;;18.33;;
20695;SDS011;10507;52.754;13.040;2024-03-08T04:24:23;31.57;;;17.70;;
20695;SDS011;10507;52.754;13.040;2024-03-08T04:26:50;36.20;;;17.30;;
20695;SDS011;10507;52.754;13.040;2024-03-08T04:29:17;41.47;;;19.10;;
20695;SDS011;10507;52.754;13.040;2024-03-08T04:31:43;32.70;;;16.83;;
20695;SDS011;10507;52.754;13.040;2024-03-08T04:34:10;36.17;;;18.53;;
20695;SDS011;10507;52.754;13.040;2024-03-08T04:36:39;35.57;;;17.13;;
20695;SDS011;10507;52.754;13.040;2024-03-08T04:39:30;34.57;;;18.60;;
20695;SDS011;10507;52.754;13.040;2024-03-08T04:41:58;39.57;;;18.57;;
20695;SDS011;10507;52.754;13.040;2024-03-08T04:44:29;38.73;;;17.97;;
20695;SDS011;10507;52.754;13.040;2024-03-08T04:46:56;36.47;;;18.57;;
20695;SDS011;10507;52.754;13.040;2024-03-08T04:49:22;37.47;;;18.00;;
20695;SDS011;10507;52.754;13.040;2024-03-08T04:51:50;35.67;;;18.53;;
20695;SDS011;10507;52.754;13.040;2024-03-08T04:54:17;37.23;;;18.03;;
20695;SDS011;10507;52.754;13.040;2024-03-08T04:56:43;36.27;;;18.80;;
20695;SDS011;10507;52.754;13.040;2024-03-08T04:59:11;40.07;;;19.50;;
20695;SDS011;10507;52.754;13.040;2024-03-08T05:01:38;40.57;;;18.37;;
20695;SDS011;10507;52.754;13.040;2024-03-08T05:04:05;38.73;;;18.43;;
20695;SDS011;10507;52.754;13.040;2024-03-08T05:06:32;36.43;;;17.57;;
20695;SDS011;10507;52.754;13.040;2024-03-08T05:09:00;37.83;;;18.97;;
20695;SDS011;10507;52.754;13.040;2024-03-08T05:11:31;38.93;;;19.47;;
20695;SDS011;10507;52.754;13.040;2024-03-08T05:13:58;38.20;;;18.20;;
20695;SDS011;10507;52.754;13.040;2024-03-08T05:16:25;35.60;;;18.27;;
20695;SDS011;10507;52.754;13.040;2024-03-08T05:18:51;39.77;;;19.43;;
20695;SDS011;10507;52.754;13.040;2024-03-08T05:21:18;35.83;;;18.83;;
20695;SDS011;10507;52.754;13.040;2024-03-08T05:23:45;35.77;;;18.10;;
20695;SDS011;10507;52.754;13.040;2024-03-08T05:26:14;36.50;;;17.60;;
20695;SDS011;10507;52.754;13.040;2024-03-08T05:28:40;37.67;;;20.07;;
20695;SDS011;10507;52.754;13.040;2024-03-08T05:31:07;41.87;;;18.87;;
20695;SDS011;10507;52.754;13.040;2024-03-08T05:33:34;41.30;;;18.80;;
20695;SDS011;10507;52.754;13.040;2024-03-08T05:36:00;37.37;;;18.10;;
20695;SDS011;10507;52.754;13.040;2024-03-08T05:38:27;37.23;;;18.67;;
20695;SDS011;10507;52.754;13.040;2024-03-08T05:40:54;36.77;;;18.40;;
20695;SDS011;10507;52.754;13.040;2024-03-08T05:43:22;35.50;;;18.77;;
20695;SDS011;10507;52.754;13.040;2024-03-08T05:45:49;29.57;;;17.50;;
20695;SDS011;10507;52.754;13.040;2024-03-08T05:48:16;38.70;;;18.87;;
20695;SDS011;10507;52.754;13.040;2024-03-08T05:50:43;38.37;;;19.07;;
20695;SDS011;10507;52.754;13.040;2024-03-08T05:53:10;36.57;;;18.57;;
20695;SDS011;10507;52.754;13.040;2024-03-08T05:55:38;35.17;;;18.37;;
20695;SDS011;10507;52.754;13.040;2024-03-08T05:58:05;35.87;;;19.23;;
20695;SDS011;10507;52.754;13.040;2024-03-08T06:00:34;34.67;;;18.30;;
20695;SDS011;10507;52.754;13.040;2024-03-08T06:03:01;37.80;;;19.67;;
20695;SDS011;10507;52.754;13.040;2024-03-08T06:05:28;38.57;;;17.93;;
20695;SDS011;10507;52.754;13.040;2024-03-08T06:07:55;36.83;;;18.00;;
20695;SDS011;10507;52.754;13.040;2024-03-08T06:10:22;33.67;;;17.73;;
20695;SDS011;10507;52.754;13.040;2024-03-08T06:12:48;38.87;;;17.63;;
20695;SDS011;10507;52.754;13.040;2024-03-08T06:15:16;33.77;;;18.23;;
20695;SDS011;10507;52.754;13.040;2024-03-08T06:17:47;37.60;;;18.70;;
20695;SDS011;10507;52.754;13.040;2024-03-08T06:20:14;39.77;;;19.40;;
20695;SDS011;10507;52.754;13.040;2024-03-08T06:22:40;34.67;;;19.13;;
20695;SDS011;10507;52.754;13.040;2024-03-08T06:25:07;35.53;;;17.37;;
20695;SDS011;10507;52.754;13.040;2024-03-08T06:27:36;35.87;;;17.07;;
20695;SDS011;10507;52.754;13.040;2024-03-08T06:30:03;32.93;;;16.73;;
20695;SDS011;10507;52.754;13.040;2024-03-08T06:32:31;33.53;;;16.97;;
20695;SDS011;10507;52.754;13.040;2024-03-08T06:35:02;27.97;;;15.07;;
20695;SDS011;10507;52.754;13.040;2024-03-08T06:37:31;25.70;;;15.13;;
20695;SDS011;10507;52.754;13.040;2024-03-08T06:39:58;28.60;;;15.80;;
20695;SDS011;10507;52.754;13.040;2024-03-08T06:42:25;29.00;;;16.00;;
20695;SDS011;10507;52.754;13.040;2024-03-08T06:44:52;26.23;;;15.63;;
20695;SDS011;10507;52.754;13.040;2024-03-08T06:47:21;28.70;;;16.43;;
20695;SDS011;10507;52.754;13.040;2024-03-08T06:49:50;29.33;;;15.77;;
20695;SDS011;10507;52.754;13.040;2024-03-08T06:52:18;26.57;;;14.93;;
20695;SDS011;10507;52.754;13.040;2024-03-08T06:54:45;27.27;;;15.13;;
20695;SDS011;10507;52.754;13.040;2024-03-08T06:57:12;26.37;;;15.20;;
20695;SDS011;10507;52.754;13.040;2024-03-08T06:59:39;26.80;;;16.63;;
20695;SDS011;10507;52.754;13.040;2024-03-08T07:02:06;26.60;;;15.83;;
20695;SDS011;10507;52.754;13.040;2024-03-08T07:04:34;23.97;;;15.10;;
20695;SDS011;10507;52.754;13.040;2024-03-08T07:07:03;29.10;;;15.93;;
20695;SDS011;10507;52.754;13.040;2024-03-08T07:09:31;28.17;;;15.07;;
20695;SDS011;10507;52.754;13.040;2024-03-08T07:11:58;24.47;;;14.10;;
20695;SDS011;10507;52.754;13.040;2024-03-08T07:14:24;26.50;;;15.20;;
20695;SDS011;10507;52.754;13.040;2024-03-08T07:16:51;25.27;;;14.77;;
20695;SDS011;10507;52.754;13.040;2024-03-08T07:19:18;29.43;;;17.37;;
20695;SDS011;10507;52.754;13.040;2024-03-08T07:21:46;29.00;;;15.70;;
20695;SDS011;10507;52.754;13.040;2024-03-08T07:24:13;25.60;;;16.47;;
20695;SDS011;10507;52.754;13.040;2024-03-08T07:26:54;27.00;;;15.93;;
20695;SDS011;10507;52.754;13.040;2024-03-08T07:29:21;27.10;;;15.37;;
20695;SDS011;10507;52.754;13.040;2024-03-08T07:31:47;26.02;;;15.55;;
20695;SDS011;10507;52.754;13.040;2024-03-08T07:34:23;26.17;;;14.82;;
20695;SDS011;10507;52.754;13.040;2024-03-08T07:36:50;24.05;;;15.02;;
20695;SDS011;10507;52.754;13.040;2024-03-08T07:39:17;29.08;;;15.23;;
20695;SDS011;10507;52.754;13.040;2024-03-08T07:41:44;28.25;;;16.23;;
20695;SDS011;10507;52.754;13.040;2024-03-08T07:44:12;24.73;;;15.27;;
20695;SDS011;10507;52.754;13.040;2024-03-08T07:46:39;26.73;;;16.17;;
20695;SDS011;10507;52.754;13.040;2024-03-08T07:49:06;25.13;;;15.73;;
20695;SDS011;10507;52.754;13.040;2024-03-08T07:51:36;29.20;;;17.00;;
20695;SDS011;10507;52.754;13.040;2024-03-08T07:54:02;27.58;;;16.75;;
20695;SDS011;10507;52.754;13.040;2024-03-08T07:56:29;29.73;;;17.38;;
20695;SDS011;10507;52.754;13.040;2024-03-08T07:58:56;27.10;;;16.90;;
20695;SDS011;10507;52.754;13.040;2024-03-08T08:01:24;28.95;;;16.95;;
20695;SDS011;10507;52.754;13.040;2024-03-08T08:03:51;26.23;;;15.00;;
20695;SDS011;10507;52.754;13.040;2024-03-08T08:06:18;27.43;;;16.47;;
20695;SDS011;10507;52.754;13.040;2024-03-08T08:08:44;24.20;;;15.68;;
20695;SDS011;10507;52.754;13.040;2024-03-08T08:11:11;27.77;;;17.33;;
20695;SDS011;10507;52.754;13.040;2024-03-08T08:13:38;31.03;;;17.17;;
20695;SDS011;10507;52.754;13.040;2024-03-08T08:16:04;29.17;;;17.25;;
20695;SDS011;10507;52.754;13.040;2024-03-08T08:18:33;25.73;;;15.00;;
20695;SDS011;10507;52.754;13.040;2024-03-08T08:21:01;25.03;;;16.27;;
20695;SDS011;10507;52.754;13.040;2024-03-08T08:23:27;25.27;;;14.60;;
20695;SDS011;10507;52.754;13.040;2024-03-08T08:25:55;28.73;;;15.63;;
20695;SDS011;10507;52.754;13.040;2024-03-08T08:28:21;26.53;;;15.63;;
20695;SDS011;10507;52.754;13.040;2024-03-08T08:30:48;27.50;;;15.87;;
20695;SDS011;10507;52.754;13.040;2024-03-08T08:33:15;25.50;;;14.90;;
20695;SDS011;10507;52.754;13.040;2024-03-08T08:35:43;25.70;;;14.47;;
20695;SDS011;10507;52.754;13.040;2024-03-08T08:38:10;26.27;;;14.97;;
20695;SDS011;10507;52.754;13.040;2024-03-08T08:40:36;26.67;;;15.27;;
20695;SDS011;10507;52.754;13.040;2024-03-08T08:43:03;25.57;;;14.67;;
20695;SDS011;10507;52.754;13.040;2024-03-08T08:45:30;23.30;;;13.43;;
20695;SDS011;10507;52.754;13.040;2024-03-08T08:47:57;24.47;;;14.17;;
20695;SDS011;10507;52.754;13.040;2024-03-08T08:50:25;25.03;;;14.20;;
20695;SDS011;10507;52.754;13.040;2024-03-08T08:52:54;22.27;;;14.07;;
20695;SDS011;10507;52.754;13.040;2024-03-08T08:55:21;26.47;;;13.80;;
20695;SDS011;10507;52.754;13.040;2024-03-08T08:57:50;21.97;;;13.00;;
20695;SDS011;10507;52.754;13.040;2024-03-08T09:00:18;24.03;;;12.77;;
20695;SDS011;10507;52.754;13.040;2024-03-08T09:02:45;23.50;;;13.83;;
20695;SDS011;10507;52.754;13.040;2024-03-08T09:05:13;22.67;;;13.20;;
20695;SDS011;10507;52.754;13.040;2024-03-08T09:07:41;23.03;;;13.47;;
20695;SDS011;10507;52.754;13.040;2024-03-08T09:10:10;22.87;;;12.37;;
20695;SDS011;10507;52.754;13.040;2024-03-08T09:12:39;24.43;;;13.60;;
20695;SDS011;10507;52.754;13.040;2024-03-08T09:15:06;22.00;;;13.60;;
20695;SDS011;10507;52.754;13.040;2024-03-08T09:17:36;21.77;;;14.00;;
20695;SDS011;10507;52.754;13.040;2024-03-08T09:20:05;22.47;;;13.20;;
20695;SDS011;10507;52.754;13.040;2024-03-08T09:22:32;26.17;;;14.77;;
20695;SDS011;10507;52.754;13.040;2024-03-08T09:24:59;26.77;;;14.13;;
20695;SDS011;10507;52.754;13.040;2024-03-08T09:27:27;24.97;;;13.40;;
20695;SDS011;10507;52.754;13.040;2024-03-08T09:29:55;24.47;;;14.43;;
20695;SDS011;10507;52.754;13.040;2024-03-08T09:32:21;24.60;;;14.40;;
20695;SDS011;10507;52.754;13.040;2024-03-08T09:34:48;27.77;;;15.80;;
20695;SDS011;10507;52.754;13.040;2024-03-08T09:37:15;26.77;;;14.67;;
20695;SDS011;10507;52.754;13.040;2024-03-08T09:39:42;25.13;;;14.77;;
20695;SDS011;10507;52.754;13.040;2024-03-08T09:42:09;22.67;;;13.57;;
20695;SDS011;10507;52.754;13.040;2024-03-08T09:44:41;23.40;;;13.80;;
20695;SDS011;10507;52.754;13.040;2024-03-08T09:47:11;26.07;;;14.27;;
20695;SDS011;10507;52.754;13.040;2024-03-08T09:49:40;27.97;;;13.60;;
20695;SDS011;10507;52.754;13.040;2024-03-08T09:52:08;24.57;;;13.80;;
20695;SDS011;10507;52.754;13.040;2024-03-08T09:54:37;22.43;;;12.80;;
20695;SDS011;10507;52.754;13.040;2024-03-08T09:57:04;24.97;;;14.67;;
20695;SDS011;10507;52.754;13.040;2024-03-08T09:59:33;25.23;;;14.63;;
20695;SDS011;10507;52.754;13.040;2024-03-08T10:02:17;27.17;;;14.23;;
20695;SDS011;10507;52.754;13.040;2024-03-08T10:04:46;24.57;;;12.47;;
20695;SDS011;10507;52.754;13.040;2024-03-08T10:07:12;23.23;;;13.63;;
20695;SDS011;10507;52.754;13.040;2024-03-08T10:09:39;23.07;;;13.63;;
20695;SDS011;10507;52.754;13.040;2024-03-08T10:12:07;23.73;;;14.00;;
20695;SDS011;10507;52.754;13.040;2024-03-08T10:14:35;28.10;;;15.00;;
20695;SDS011;10507;52.754;13.040;2024-03-08T10:17:05;25.93;;;14.60;;
20695;SDS011;10507;52.754;13.040;2024-03-08T10:19:34;26.83;;;14.47;;
20695;SDS011;10507;52.754;13.040;2024-03-08T10:22:00;25.73;;;15.50;;
20695;SDS011;10507;52.754;13.040;2024-03-08T10:24:29;25.17;;;13.97;;
20695;SDS011;10507;52.754;13.040;2024-03-08T10:26:58;26.67;;;14.40;;
20695;SDS011;10507;52.754;13.040;2024-03-08T10:29:26;27.20;;;14.07;;
20695;SDS011;10507;52.754;13.040;2024-03-08T10:31:53;24.63;;;14.33;;
20695;SDS011;10507;52.754;13.040;2024-03-08T10:34:22;25.07;;;14.27;;
20695;SDS011;10507;52.754;13.040;2024-03-08T10:36:51;24.80;;;14.70;;
20695;SDS011;10507;52.754;13.040;2024-03-08T10:39:21;23.00;;;13.47;;
20695;SDS011;10507;52.754;13.040;2024-03-08T10:41:51;24.10;;;13.37;;
20695;SDS011;10507;52.754;13.040;2024-03-08T10:44:25;25.63;;;14.53;;
20695;SDS011;10507;52.754;13.040;2024-03-08T10:47:00;27.47;;;14.37;;
20695;SDS011;10507;52.754;13.040;2024-03-08T10:49:30;25.67;;;14.00;;
20695;SDS011;10507;52.754;13.040;2024-03-08T10:52:03;22.87;;;13.90;;
20695;SDS011;10507;52.754;13.040;2024-03-08T10:54:33;22.43;;;13.57;;
20695;SDS011;10507;52.754;13.040;2024-03-08T10:57:01;24.10;;;15.03;;
20695;SDS011;10507;52.754;13.040;2024-03-08T10:59:31;22.70;;;14.00;;
20695;SDS011;10507;52.754;13.040;2024-03-08T11:01:59;24.30;;;14.13;;
20695;SDS011;10507;52.754;13.040;2024-03-08T11:04:25;23.03;;;13.63;;
20695;SDS011;10507;52.754;13.040;2024-03-08T11:06:54;24.27;;;14.60;;
20695;SDS011;10507;52.754;13.040;2024-03-08T11:09:30;22.80;;;13.33;;
20695;SDS011;10507;52.754;13.040;2024-03-08T11:14:55;23.30;;;13.73;;
20695;SDS011;10507;52.754;13.040;2024-03-08T11:17:26;21.50;;;12.33;;
20695;SDS011;10507;52.754;13.040;2024-03-08T11:20:09;21.67;;;12.47;;
20695;SDS011;10507;52.754;13.040;2024-03-08T11:22:40;20.80;;;12.13;;
20695;SDS011;10507;52.754;13.040;2024-03-08T11:25:30;24.20;;;13.27;;
20695;SDS011;10507;52.754;13.040;2024-03-08T11:28:06;25.30;;;13.57;;
20695;SDS011;10507;52.754;13.040;2024-03-08T11:30:34;25.87;;;13.17;;
20695;SDS011;10507;52.754;13.040;2024-03-08T11:33:03;19.20;;;11.27;;
20695;SDS011;10507;52.754;13.040;2024-03-08T11:35:30;20.70;;;11.67;;
20695;SDS011;10507;52.754;13.040;2024-03-08T11:37:57;22.40;;;12.20;;
20695;SDS011;10507;52.754;13.040;2024-03-08T11:40:26;20.93;;;12.30;;
20695;SDS011;10507;52.754;13.040;2024-03-08T11:42:53;19.07;;;11.33;;
20695;SDS011;10507;52.754;13.040;2024-03-08T11:45:20;20.97;;;11.80;;
20695;SDS011;10507;52.754;13.040;2024-03-08T11:47:47;19.57;;;11.73;;
20695;SDS011;10507;52.754;13.040;2024-03-08T11:50:14;20.57;;;10.50;;
20695;SDS011;10507;52.754;13.040;2024-03-08T11:52:41;16.67;;;9.97;;
20695;SDS011;10507;52.754;13.040;2024-03-08T11:55:11;19.87;;;10.60;;
20695;SDS011;10507;52.754;13.040;2024-03-08T11:57:40;17.63;;;9.97;;
20695;SDS011;10507;52.754;13.040;2024-03-08T12:00:14;22.43;;;11.90;;
20695;SDS011;10507;52.754;13.040;2024-03-08T12:02:54;22.50;;;11.43;;
20695;SDS011;10507;52.754;13.040;2024-03-08T12:05:27;19.73;;;10.73;;
20695;SDS011;10507;52.754;13.040;2024-03-08T12:07:56;18.67;;;11.20;;
20695;SDS011;10507;52.754;13.040;2024-03-08T12:10:23;20.47;;;10.97;;
20695;SDS011;10507;52.754;13.040;2024-03-08T12:12:52;19.40;;;10.67;;
20695;SDS011;10507;52.754;13.040;2024-03-08T12:15:20;22.47;;;12.17;;
20695;SDS011;10507;52.754;13.040;2024-03-08T12:17:48;21.97;;;12.17;;
20695;SDS011;10507;52.754;13.040;2024-03-08T12:20:17;19.70;;;11.97;;
20695;SDS011;10507;52.754;13.040;2024-03-08T12:22:46;21.17;;;12.73;;
20695;SDS011;10507;52.754;13.040;2024-03-08T12:25:14;20.67;;;11.50;;
20695;SDS011;10507;52.754;13.040;2024-03-08T12:27:42;19.50;;;11.40;;
20695;SDS011;10507;52.754;13.040;2024-03-08T12:30:18;21.27;;;11.37;;
20695;SDS011;10507;52.754;13.040;2024-03-08T12:32:51;21.47;;;11.70;;
20695;SDS011;10507;52.754;13.040;2024-03-08T12:35:21;20.80;;;11.43;;
20695;SDS011;10507;52.754;13.040;2024-03-08T12:37:50;17.07;;;10.10;;
20695;SDS011;10507;52.754;13.040;2024-03-08T12:40:18;18.77;;;11.50;;
20695;SDS011;10507;52.754;13.040;2024-03-08T12:42:46;19.15;;;11.18;;
20695;SDS011;10507;52.754;13.040;2024-03-08T12:45:13;18.88;;;10.75;;
20695;SDS011;10507;52.754;13.040;2024-03-08T12:47:42;19.15;;;11.00;;
20695;SDS011;10507;52.754;13.040;2024-03-08T12:50:09;20.07;;;11.60;;
20695;SDS011;10507;52.754;13.040;2024-03-08T12:52:36;19.20;;;11.03;;
20695;SDS011;10507;52.754;13.040;2024-03-08T12:55:03;19.40;;;11.05;;
20695;SDS011;10507;52.754;13.040;2024-03-08T12:57:32;20.03;;;9.77;;
20695;SDS011;10507;52.754;13.040;2024-03-08T13:00:00;20.50;;;11.20;;
20695;SDS011;10507;52.754;13.040;2024-03-08T13:02:27;19.83;;;11.50;;
20695;SDS011;10507;52.754;13.040;2024-03-08T13:04:56;18.58;;;10.80;;
20695;SDS011;10507;52.754;13.040;2024-03-08T13:07:24;16.77;;;10.15;;
20695;SDS011;10507;52.754;13.040;2024-03-08T13:09:52;19.95;;;11.25;;
20695;SDS011;10507;52.754;13.040;2024-03-08T13:12:19;19.50;;;11.75;;
20695;SDS011;10507;52.754;13.040;2024-03-08T13:14:46;16.95;;;10.48;;
20695;SDS011;10507;52.754;13.040;2024-03-08T13:17:13;19.57;;;11.53;;
20695;SDS011;10507;52.754;13.040;2024-03-08T13:19:40;20.77;;;11.30;;
20695;SDS011;10507;52.754;13.040;2024-03-08T13:22:08;20.30;;;11.90;;
20695;SDS011;10507;52.754;13.040;2024-03-08T13:24:37;19.23;;;11.47;;
20695;SDS011;10507;52.754;13.040;2024-03-08T13:27:05;18.07;;;11.90;;
20695;SDS011;10507;52.754;13.040;2024-03-08T13:29:44;17.93;;;11.13;;
20695;SDS011;10507;52.754;13.040;2024-03-08T13:32:11;22.23;;;10.73;;
20695;SDS011;10507;52.754;13.040;2024-03-08T13:34:40;17.43;;;10.50;;
20695;SDS011;10507;52.754;13.040;2024-03-08T13:37:08;18.87;;;11.10;;
20695;SDS011;10507;52.754;13.040;2024-03-08T13:39:36;20.40;;;11.77;;
20695;SDS011;10507;52.754;13.040;2024-03-08T13:42:08;18.30;;;11.50;;
20695;SDS011;10507;52.754;13.040;2024-03-08T13:44:38;19.83;;;10.83;;
20695;SDS011;10507;52.754;13.040;2024-03-08T13:47:15;19.03;;;11.17;;
20695;SDS011;10507;52.754;13.040;2024-03-08T13:49:42;21.70;;;12.13;;
20695;SDS011;10507;52.754;13.040;2024-03-08T13:52:10;18.90;;;12.88;;
20695;SDS011;10507;52.754;13.040;2024-03-08T13:54:37;20.65;;;11.35;;
20695;SDS011;10507;52.754;13.040;2024-03-08T13:57:04;19.05;;;11.35;;
20695;SDS011;10507;52.754;13.040;2024-03-08T13:59:32;19.57;;;11.03;;
20695;SDS011;10507;52.754;13.040;2024-03-08T14:02:00;18.93;;;11.40;;
20695;SDS011;10507;52.754;13.040;2024-03-08T14:04:27;20.60;;;11.43;;
20695;SDS011;10507;52.754;13.040;2024-03-08T14:06:54;19.50;;;11.20;;
20695;SDS011;10507;52.754;13.040;2024-03-08T14:09:28;19.57;;;11.47;;
20695;SDS011;10507;52.754;13.040;2024-03-08T14:11:56;19.00;;;10.60;;
20695;SDS011;10507;52.754;13.040;2024-03-08T14:14:23;16.70;;;10.70;;
20695;SDS011;10507;52.754;13.040;2024-03-08T14:16:50;22.37;;;12.03;;